sensor_id;sensor_type;location;lat;lon;timestamp;temperature;humidity
38788;DHT22;24536;45.488;12.238;2023-07-13T00:21:47;28.60;80.70
38788;DHT22;24536;45.488;12.238;2023-07-13T00:45:05;27.30;82.80
38788;DHT22;24536;45.488;12.238;2023-07-13T01:32:17;26.70;84.70
38788;DHT22;24536;45.488;12.238;2023-07-13T01:39:05;26.70;83.70
38788;DHT22;24536;45.488;12.238;2023-07-13T01:41:44;26.70;83.50
38788;DHT22;24536;45.488;12.238;2023-07-13T01:44:26;26.70;82.90
38788;DHT22;24536;45.488;12.238;2023-07-13T01:47:06;26.70;82.80
38788;DHT22;24536;45.488;12.238;2023-07-13T02:07:27;26.70;82.60
38788;DHT22;24536;45.488;12.238;2023-07-13T02:10:34;26.60;82.50
38788;DHT22;24536;45.488;12.238;2023-07-13T02:13:43;26.60;82.40
38788;DHT22;24536;45.488;12.238;2023-07-13T02:19:51;26.60;82.70
38788;DHT22;24536;45.488;12.238;2023-07-13T02:32:30;26.40;83.30
38788;DHT22;24536;45.488;12.238;2023-07-13T02:34:56;26.40;83.40
38788;DHT22;24536;45.488;12.238;2023-07-13T02:37:22;26.30;83.40
38788;DHT22;24536;45.488;12.238;2023-07-13T02:39:48;26.30;83.50
38788;DHT22;24536;45.488;12.238;2023-07-13T02:42:13;26.30;83.60
38788;DHT22;24536;45.488;12.238;2023-07-13T02:44:39;26.30;83.80
38788;DHT22;24536;45.488;12.238;2023-07-13T02:47:05;26.30;83.90
38788;DHT22;24536;45.488;12.238;2023-07-13T02:49:31;26.20;84.10
38788;DHT22;24536;45.488;12.238;2023-07-13T02:51:56;26.20;84.00
38788;DHT22;24536;45.488;12.238;2023-07-13T02:54:22;26.20;84.30
38788;DHT22;24536;45.488;12.238;2023-07-13T02:56:48;26.10;84.40
38788;DHT22;24536;45.488;12.238;2023-07-13T02:59:13;26.10;84.30
38788;DHT22;24536;45.488;12.238;2023-07-13T03:01:39;26.10;84.50
38788;DHT22;24536;45.488;12.238;2023-07-13T03:04:06;26.10;84.20
38788;DHT22;24536;45.488;12.238;2023-07-13T03:06:33;26.10;84.10
38788;DHT22;24536;45.488;12.238;2023-07-13T03:09:01;26.10;84.10
38788;DHT22;24536;45.488;12.238;2023-07-13T03:11:27;26.10;84.30
38788;DHT22;24536;45.488;12.238;2023-07-13T03:13:52;26.10;84.30
38788;DHT22;24536;45.488;12.238;2023-07-13T03:16:18;26.10;84.50
38788;DHT22;24536;45.488;12.238;2023-07-13T03:18:46;26.10;84.40
38788;DHT22;24536;45.488;12.238;2023-07-13T03:21:12;26.10;84.60
38788;DHT22;24536;45.488;12.238;2023-07-13T03:23:37;26.20;84.80
38788;DHT22;24536;45.488;12.238;2023-07-13T03:26:13;26.10;84.60
38788;DHT22;24536;45.488;12.238;2023-07-13T03:28:39;26.10;85.00
38788;DHT22;24536;45.488;12.238;2023-07-13T03:31:09;26.00;84.80
38788;DHT22;24536;45.488;12.238;2023-07-13T03:33:35;26.00;85.40
38788;DHT22;24536;45.488;12.238;2023-07-13T03:36:02;26.00;85.70
38788;DHT22;24536;45.488;12.238;2023-07-13T03:38:31;25.90;85.70
38788;DHT22;24536;45.488;12.238;2023-07-13T03:40:57;25.80;86.20
38788;DHT22;24536;45.488;12.238;2023-07-13T03:43:23;25.70;86.90
38788;DHT22;24536;45.488;12.238;2023-07-13T03:45:49;25.70;87.60
38788;DHT22;24536;45.488;12.238;2023-07-13T03:48:14;25.60;88.00
38788;DHT22;24536;45.488;12.238;2023-07-13T03:50:40;25.60;88.00
38788;DHT22;24536;45.488;12.238;2023-07-13T03:53:06;25.40;88.40
38788;DHT22;24536;45.488;12.238;2023-07-13T03:55:32;25.40;88.50
38788;DHT22;24536;45.488;12.238;2023-07-13T03:58:00;25.30;89.20
38788;DHT22;24536;45.488;12.238;2023-07-13T04:00:26;25.30;89.10
38788;DHT22;24536;45.488;12.238;2023-07-13T04:02:52;25.20;89.60
38788;DHT22;24536;45.488;12.238;2023-07-13T04:05:18;25.20;89.40
38788;DHT22;24536;45.488;12.238;2023-07-13T04:07:44;25.20;89.40
38788;DHT22;24536;45.488;12.238;2023-07-13T04:10:10;25.20;89.20
38788;DHT22;24536;45.488;12.238;2023-07-13T04:12:36;25.20;89.30
38788;DHT22;24536;45.488;12.238;2023-07-13T04:15:01;25.20;89.60
38788;DHT22;24536;45.488;12.238;2023-07-13T04:17:27;25.20;89.60
38788;DHT22;24536;45.488;12.238;2023-07-13T04:19:53;25.10;90.00
38788;DHT22;24536;45.488;12.238;2023-07-13T04:22:18;25.00;90.00
38788;DHT22;24536;45.488;12.238;2023-07-13T04:24:44;24.90;90.20
38788;DHT22;24536;45.488;12.238;2023-07-13T04:27:10;24.80;90.40
38788;DHT22;24536;45.488;12.238;2023-07-13T04:29:35;24.80;90.60
38788;DHT22;24536;45.488;12.238;2023-07-13T04:32:01;24.80;90.60
38788;DHT22;24536;45.488;12.238;2023-07-13T04:34:27;24.80;90.40
38788;DHT22;24536;45.488;12.238;2023-07-13T04:36:52;24.80;90.40
38788;DHT22;24536;45.488;12.238;2023-07-13T04:39:18;24.90;90.30
38788;DHT22;24536;45.488;12.238;2023-07-13T04:41:44;25.00;90.30
38788;DHT22;24536;45.488;12.238;2023-07-13T04:44:09;25.00;90.20
38788;DHT22;24536;45.488;12.238;2023-07-13T04:46:35;25.00;90.10
38788;DHT22;24536;45.488;12.238;2023-07-13T04:49:01;25.00;90.00
38788;DHT22;24536;45.488;12.238;2023-07-13T04:51:29;25.00;90.00
38788;DHT22;24536;45.488;12.238;2023-07-13T04:53:55;24.90;90.00
38788;DHT22;24536;45.488;12.238;2023-07-13T04:56:20;24.90;90.00
38788;DHT22;24536;45.488;12.238;2023-07-13T04:58:46;24.90;90.10
38788;DHT22;24536;45.488;12.238;2023-07-13T05:01:12;24.80;90.00
38788;DHT22;24536;45.488;12.238;2023-07-13T05:03:39;24.90;90.00
38788;DHT22;24536;45.488;12.238;2023-07-13T05:06:07;25.00;89.90
38788;DHT22;24536;45.488;12.238;2023-07-13T05:08:33;25.10;89.40
38788;DHT22;24536;45.488;12.238;2023-07-13T05:11:03;25.20;88.80
38788;DHT22;24536;45.488;12.238;2023-07-13T05:13:29;25.30;88.60
38788;DHT22;24536;45.488;12.238;2023-07-13T05:16:00;25.30;87.80
38788;DHT22;24536;45.488;12.238;2023-07-13T05:18:27;25.30;87.20
38788;DHT22;24536;45.488;12.238;2023-07-13T05:21:06;25.30;87.40
38788;DHT22;24536;45.488;12.238;2023-07-13T05:23:33;25.20;87.30
38788;DHT22;24536;45.488;12.238;2023-07-13T05:26:00;25.20;87.80
38788;DHT22;24536;45.488;12.238;2023-07-13T05:28:27;25.10;87.90
38788;DHT22;24536;45.488;12.238;2023-07-13T05:30:53;25.10;88.00
38788;DHT22;24536;45.488;12.238;2023-07-13T05:33:20;25.10;88.00
38788;DHT22;24536;45.488;12.238;2023-07-13T05:35:46;25.10;88.10
38788;DHT22;24536;45.488;12.238;2023-07-13T05:38:12;25.10;87.80
38788;DHT22;24536;45.488;12.238;2023-07-13T05:40:37;25.20;88.10
38788;DHT22;24536;45.488;12.238;2023-07-13T05:43:03;25.20;88.10
38788;DHT22;24536;45.488;12.238;2023-07-13T05:45:29;25.30;87.80
38788;DHT22;24536;45.488;12.238;2023-07-13T05:47:54;25.30;87.70
38788;DHT22;24536;45.488;12.238;2023-07-13T05:50:20;25.30;87.70
38788;DHT22;24536;45.488;12.238;2023-07-13T05:52:46;25.30;87.70
38788;DHT22;24536;45.488;12.238;2023-07-13T05:55:12;25.20;87.70
38788;DHT22;24536;45.488;12.238;2023-07-13T05:57:38;25.20;87.90
38788;DHT22;24536;45.488;12.238;2023-07-13T06:00:04;25.20;88.20
38788;DHT22;24536;45.488;12.238;2023-07-13T06:02:30;25.10;88.00
38788;DHT22;24536;45.488;12.238;2023-07-13T06:04:56;25.10;88.00
38788;DHT22;24536;45.488;12.238;2023-07-13T06:07:22;25.10;87.90
38788;DHT22;24536;45.488;12.238;2023-07-13T06:09:47;25.20;88.00
38788;DHT22;24536;45.488;12.238;2023-07-13T06:12:13;25.20;87.70
38788;DHT22;24536;45.488;12.238;2023-07-13T06:14:39;25.20;87.60
38788;DHT22;24536;45.488;12.238;2023-07-13T06:17:05;25.30;87.70
38788;DHT22;24536;45.488;12.238;2023-07-13T06:19:31;25.30;87.70
38788;DHT22;24536;45.488;12.238;2023-07-13T06:21:57;25.30;87.40
38788;DHT22;24536;45.488;12.238;2023-07-13T06:24:24;25.30;87.20
38788;DHT22;24536;45.488;12.238;2023-07-13T06:26:50;25.40;87.30
38788;DHT22;24536;45.488;12.238;2023-07-13T06:29:15;25.40;87.10
38788;DHT22;24536;45.488;12.238;2023-07-13T06:31:41;25.50;87.00
38788;DHT22;24536;45.488;12.238;2023-07-13T06:34:07;25.50;86.40
38788;DHT22;24536;45.488;12.238;2023-07-13T06:36:32;25.60;86.40
38788;DHT22;24536;45.488;12.238;2023-07-13T06:38:58;25.70;86.00
38788;DHT22;24536;45.488;12.238;2023-07-13T06:41:24;25.70;86.10
38788;DHT22;24536;45.488;12.238;2023-07-13T06:43:52;25.80;85.70
38788;DHT22;24536;45.488;12.238;2023-07-13T06:46:19;25.80;85.60
38788;DHT22;24536;45.488;12.238;2023-07-13T06:48:45;26.00;85.70
38788;DHT22;24536;45.488;12.238;2023-07-13T06:51:11;26.10;85.00
38788;DHT22;24536;45.488;12.238;2023-07-13T06:53:36;26.20;84.90
38788;DHT22;24536;45.488;12.238;2023-07-13T06:56:02;26.30;85.00
38788;DHT22;24536;45.488;12.238;2023-07-13T06:58:28;26.40;84.60
38788;DHT22;24536;45.488;12.238;2023-07-13T07:00:53;26.50;84.30
38788;DHT22;24536;45.488;12.238;2023-07-13T07:03:19;26.60;84.10
38788;DHT22;24536;45.488;12.238;2023-07-13T07:05:45;26.70;83.30
38788;DHT22;24536;45.488;12.238;2023-07-13T07:08:11;26.60;83.30
38788;DHT22;24536;45.488;12.238;2023-07-13T07:10:37;26.60;83.60
38788;DHT22;24536;45.488;12.238;2023-07-13T07:13:03;26.50;83.60
38788;DHT22;24536;45.488;12.238;2023-07-13T07:15:29;26.50;83.90
38788;DHT22;24536;45.488;12.238;2023-07-13T07:17:55;26.60;83.90
38788;DHT22;24536;45.488;12.238;2023-07-13T07:20:21;26.50;83.90
38788;DHT22;24536;45.488;12.238;2023-07-13T07:22:47;26.60;83.80
38788;DHT22;24536;45.488;12.238;2023-07-13T07:25:14;26.60;83.80
38788;DHT22;24536;45.488;12.238;2023-07-13T07:27:39;26.60;83.50
38788;DHT22;24536;45.488;12.238;2023-07-13T07:30:05;26.60;83.50
38788;DHT22;24536;45.488;12.238;2023-07-13T07:32:32;26.60;83.40
38788;DHT22;24536;45.488;12.238;2023-07-13T07:34:58;26.70;83.30
38788;DHT22;24536;45.488;12.238;2023-07-13T07:37:24;26.70;83.30
38788;DHT22;24536;45.488;12.238;2023-07-13T07:39:50;26.70;82.90
38788;DHT22;24536;45.488;12.238;2023-07-13T07:42:16;26.70;83.10
38788;DHT22;24536;45.488;12.238;2023-07-13T07:44:42;26.80;83.00
38788;DHT22;24536;45.488;12.238;2023-07-13T07:47:09;26.80;83.10
38788;DHT22;24536;45.488;12.238;2023-07-13T07:49:36;26.90;82.70
38788;DHT22;24536;45.488;12.238;2023-07-13T07:52:02;26.90;82.60
38788;DHT22;24536;45.488;12.238;2023-07-13T07:54:28;27.00;82.50
38788;DHT22;24536;45.488;12.238;2023-07-13T07:56:53;27.00;81.80
38788;DHT22;24536;45.488;12.238;2023-07-13T07:59:19;27.00;82.00
38788;DHT22;24536;45.488;12.238;2023-07-13T08:01:45;26.90;81.90
38788;DHT22;24536;45.488;12.238;2023-07-13T08:04:13;27.00;81.90
38788;DHT22;24536;45.488;12.238;2023-07-13T08:06:39;26.90;81.40
38788;DHT22;24536;45.488;12.238;2023-07-13T08:09:04;26.90;81.90
38788;DHT22;24536;45.488;12.238;2023-07-13T08:11:31;26.90;82.00
38788;DHT22;24536;45.488;12.238;2023-07-13T08:13:57;27.00;82.10
38788;DHT22;24536;45.488;12.238;2023-07-13T08:16:23;27.10;82.00
38788;DHT22;24536;45.488;12.238;2023-07-13T08:18:49;27.20;82.50
38788;DHT22;24536;45.488;12.238;2023-07-13T08:21:14;27.20;83.30
38788;DHT22;24536;45.488;12.238;2023-07-13T08:23:40;27.20;82.80
38788;DHT22;24536;45.488;12.238;2023-07-13T08:26:06;27.30;82.60
38788;DHT22;24536;45.488;12.238;2023-07-13T08:28:33;27.30;82.50
38788;DHT22;24536;45.488;12.238;2023-07-13T08:31:07;27.30;81.90
38788;DHT22;24536;45.488;12.238;2023-07-13T08:33:34;27.20;82.00
38788;DHT22;24536;45.488;12.238;2023-07-13T08:36:00;27.30;82.20
38788;DHT22;24536;45.488;12.238;2023-07-13T08:38:26;27.30;82.20
38788;DHT22;24536;45.488;12.238;2023-07-13T08:40:54;27.30;81.70
38788;DHT22;24536;45.488;12.238;2023-07-13T08:43:26;27.20;81.50
38788;DHT22;24536;45.488;12.238;2023-07-13T08:46:18;27.20;81.60
38788;DHT22;24536;45.488;12.238;2023-07-13T08:48:46;27.20;81.50
38788;DHT22;24536;45.488;12.238;2023-07-13T08:54:48;27.20;79.90
38788;DHT22;24536;45.488;12.238;2023-07-13T08:57:18;27.10;80.30
38788;DHT22;24536;45.488;12.238;2023-07-13T08:59:44;27.10;80.50
38788;DHT22;24536;45.488;12.238;2023-07-13T09:05:04;27.00;80.80
38788;DHT22;24536;45.488;12.238;2023-07-13T09:10:41;27.10;80.40
38788;DHT22;24536;45.488;12.238;2023-07-13T09:16:04;27.20;80.00
38788;DHT22;24536;45.488;12.238;2023-07-13T09:18:39;27.20;80.00
38788;DHT22;24536;45.488;12.238;2023-07-13T09:21:16;27.20;79.70
38788;DHT22;24536;45.488;12.238;2023-07-13T09:23:42;27.20;79.50
38788;DHT22;24536;45.488;12.238;2023-07-13T09:26:21;27.20;79.10
38788;DHT22;24536;45.488;12.238;2023-07-13T09:29:16;27.10;79.10
38788;DHT22;24536;45.488;12.238;2023-07-13T09:31:50;27.20;79.60
38788;DHT22;24536;45.488;12.238;2023-07-13T09:34:18;27.10;79.40
38788;DHT22;24536;45.488;12.238;2023-07-13T09:36:44;27.20;79.70
38788;DHT22;24536;45.488;12.238;2023-07-13T09:39:27;27.20;79.50
38788;DHT22;24536;45.488;12.238;2023-07-13T09:44:32;27.10;79.00
38788;DHT22;24536;45.488;12.238;2023-07-13T09:46:59;27.10;79.10
38788;DHT22;24536;45.488;12.238;2023-07-13T09:49:31;27.00;79.90
38788;DHT22;24536;45.488;12.238;2023-07-13T09:52:06;27.10;80.70
38788;DHT22;24536;45.488;12.238;2023-07-13T09:54:35;27.20;80.10
38788;DHT22;24536;45.488;12.238;2023-07-13T09:57:03;27.20;79.80
38788;DHT22;24536;45.488;12.238;2023-07-13T09:59:32;27.20;80.00
38788;DHT22;24536;45.488;12.238;2023-07-13T10:01:59;27.20;80.00
38788;DHT22;24536;45.488;12.238;2023-07-13T10:04:33;27.20;79.40
38788;DHT22;24536;45.488;12.238;2023-07-13T10:07:11;27.20;79.20
38788;DHT22;24536;45.488;12.238;2023-07-13T10:09:38;27.20;79.30
38788;DHT22;24536;45.488;12.238;2023-07-13T10:12:13;27.20;79.10
38788;DHT22;24536;45.488;12.238;2023-07-13T10:14:41;27.20;78.90
38788;DHT22;24536;45.488;12.238;2023-07-13T10:17:12;27.20;78.30
38788;DHT22;24536;45.488;12.238;2023-07-13T10:19:41;27.20;78.90
38788;DHT22;24536;45.488;12.238;2023-07-13T10:24:52;27.10;79.50
38788;DHT22;24536;45.488;12.238;2023-07-13T10:27:20;27.00;80.20
38788;DHT22;24536;45.488;12.238;2023-07-13T10:32:37;26.90;81.90
38788;DHT22;24536;45.488;12.238;2023-07-13T10:35:03;26.80;82.00
38788;DHT22;24536;45.488;12.238;2023-07-13T10:37:36;26.80;81.80
38788;DHT22;24536;45.488;12.238;2023-07-13T10:40:05;26.80;81.60
38788;DHT22;24536;45.488;12.238;2023-07-13T10:42:39;26.80;82.10
38788;DHT22;24536;45.488;12.238;2023-07-13T10:45:21;26.90;82.50
38788;DHT22;24536;45.488;12.238;2023-07-13T10:47:50;26.90;83.00
38788;DHT22;24536;45.488;12.238;2023-07-13T10:50:23;27.00;83.20
38788;DHT22;24536;45.488;12.238;2023-07-13T10:52:55;27.20;83.10
38788;DHT22;24536;45.488;12.238;2023-07-13T10:55:38;27.30;83.10
38788;DHT22;24536;45.488;12.238;2023-07-13T11:04:00;27.90;82.20
38788;DHT22;24536;45.488;12.238;2023-07-13T11:08:56;28.50;81.40
38788;DHT22;24536;45.488;12.238;2023-07-13T11:21:31;29.60;76.30
38788;DHT22;24536;45.488;12.238;2023-07-13T11:24:17;29.90;76.10
38788;DHT22;24536;45.488;12.238;2023-07-13T11:31:51;30.70;73.60
38788;DHT22;24536;45.488;12.238;2023-07-13T11:34:21;30.90;72.90
38788;DHT22;24536;45.488;12.238;2023-07-13T11:36:50;31.10;73.20
38788;DHT22;24536;45.488;12.238;2023-07-13T11:39:32;31.40;71.80
38788;DHT22;24536;45.488;12.238;2023-07-13T11:42:05;31.70;71.70
38788;DHT22;24536;45.488;12.238;2023-07-13T11:44:33;32.10;70.60
38788;DHT22;24536;45.488;12.238;2023-07-13T11:47:10;32.40;69.80
38788;DHT22;24536;45.488;12.238;2023-07-13T11:49:48;32.80;69.40
38788;DHT22;24536;45.488;12.238;2023-07-13T11:52:35;33.20;69.20
38788;DHT22;24536;45.488;12.238;2023-07-13T11:55:12;33.80;66.20
38788;DHT22;24536;45.488;12.238;2023-07-13T11:57:44;34.10;65.80
38788;DHT22;24536;45.488;12.238;2023-07-13T12:00:14;34.20;62.90
38788;DHT22;24536;45.488;12.238;2023-07-13T12:02:43;34.20;64.20
38788;DHT22;24536;45.488;12.238;2023-07-13T12:05:14;34.20;64.10
38788;DHT22;24536;45.488;12.238;2023-07-13T12:07:41;34.50;64.40
38788;DHT22;24536;45.488;12.238;2023-07-13T12:10:29;34.90;64.50
38788;DHT22;24536;45.488;12.238;2023-07-13T12:13:00;35.20;62.00
38788;DHT22;24536;45.488;12.238;2023-07-13T12:18:18;35.50;61.00
38788;DHT22;24536;45.488;12.238;2023-07-13T12:20:45;35.50;60.30
38788;DHT22;24536;45.488;12.238;2023-07-13T12:25:47;35.60;62.40
38788;DHT22;24536;45.488;12.238;2023-07-13T12:31:04;36.20;61.00
38788;DHT22;24536;45.488;12.238;2023-07-13T12:33:31;36.30;59.70
38788;DHT22;24536;45.488;12.238;2023-07-13T12:36:01;36.30;60.60
38788;DHT22;24536;45.488;12.238;2023-07-13T12:38:27;36.50;60.00
38788;DHT22;24536;45.488;12.238;2023-07-13T12:40:53;36.50;58.40
38788;DHT22;24536;45.488;12.238;2023-07-13T12:43:21;36.60;59.80
38788;DHT22;24536;45.488;12.238;2023-07-13T12:46:19;36.70;59.90
38788;DHT22;24536;45.488;12.238;2023-07-13T12:48:50;37.00;60.40
38788;DHT22;24536;45.488;12.238;2023-07-13T12:51:16;37.20;59.80
38788;DHT22;24536;45.488;12.238;2023-07-13T12:53:50;37.50;58.80
38788;DHT22;24536;45.488;12.238;2023-07-13T12:56:23;37.60;58.40
38788;DHT22;24536;45.488;12.238;2023-07-13T12:58:49;37.60;57.60
38788;DHT22;24536;45.488;12.238;2023-07-13T13:01:21;37.60;56.60
38788;DHT22;24536;45.488;12.238;2023-07-13T13:03:50;37.70;56.80
38788;DHT22;24536;45.488;12.238;2023-07-13T13:08:52;37.80;56.60
38788;DHT22;24536;45.488;12.238;2023-07-13T13:11:20;37.70;56.10
38788;DHT22;24536;45.488;12.238;2023-07-13T13:13:46;37.50;56.10
38788;DHT22;24536;45.488;12.238;2023-07-13T13:16:20;37.60;56.60
38788;DHT22;24536;45.488;12.238;2023-07-13T13:18:46;37.70;56.40
38788;DHT22;24536;45.488;12.238;2023-07-13T13:21:12;37.70;56.40
38788;DHT22;24536;45.488;12.238;2023-07-13T13:23:38;37.80;56.00
38788;DHT22;24536;45.488;12.238;2023-07-13T13:26:12;37.90;56.10
38788;DHT22;24536;45.488;12.238;2023-07-13T13:28:38;38.00;55.50
38788;DHT22;24536;45.488;12.238;2023-07-13T13:31:04;38.00;56.10
38788;DHT22;24536;45.488;12.238;2023-07-13T13:33:29;38.00;55.40
38788;DHT22;24536;45.488;12.238;2023-07-13T13:35:56;38.00;55.40
38788;DHT22;24536;45.488;12.238;2023-07-13T13:38:26;38.00;55.60
38788;DHT22;24536;45.488;12.238;2023-07-13T13:40:52;38.00;55.30
38788;DHT22;24536;45.488;12.238;2023-07-13T13:43:21;38.00;55.40
38788;DHT22;24536;45.488;12.238;2023-07-13T13:45:52;38.00;56.00
38788;DHT22;24536;45.488;12.238;2023-07-13T13:48:25;38.00;56.10
38788;DHT22;24536;45.488;12.238;2023-07-13T13:50:56;38.00;56.40
38788;DHT22;24536;45.488;12.238;2023-07-13T13:53:22;37.90;56.20
38788;DHT22;24536;45.488;12.238;2023-07-13T13:55:49;37.90;56.10
38788;DHT22;24536;45.488;12.238;2023-07-13T13:58:15;37.80;55.50
38788;DHT22;24536;45.488;12.238;2023-07-13T14:00:41;37.70;55.60
38788;DHT22;24536;45.488;12.238;2023-07-13T14:03:17;37.60;55.20
38788;DHT22;24536;45.488;12.238;2023-07-13T14:05:44;37.50;55.20
38788;DHT22;24536;45.488;12.238;2023-07-13T14:08:16;37.30;55.10
38788;DHT22;24536;45.488;12.238;2023-07-13T14:10:45;37.20;55.80
38788;DHT22;24536;45.488;12.238;2023-07-13T14:13:36;37.10;56.60
38788;DHT22;24536;45.488;12.238;2023-07-13T14:16:18;37.00;55.80
38788;DHT22;24536;45.488;12.238;2023-07-13T14:18:44;36.90;56.10
38788;DHT22;24536;45.488;12.238;2023-07-13T14:21:17;36.70;55.80
38788;DHT22;24536;45.488;12.238;2023-07-13T14:23:44;36.40;56.70
38788;DHT22;24536;45.488;12.238;2023-07-13T14:26:16;36.10;57.20
38788;DHT22;24536;45.488;12.238;2023-07-13T14:28:45;35.80;57.50
38788;DHT22;24536;45.488;12.238;2023-07-13T14:31:13;35.60;58.00
38788;DHT22;24536;45.488;12.238;2023-07-13T14:33:38;35.40;58.90
38788;DHT22;24536;45.488;12.238;2023-07-13T14:36:42;35.10;58.80
38788;DHT22;24536;45.488;12.238;2023-07-13T14:39:15;34.90;59.30
38788;DHT22;24536;45.488;12.238;2023-07-13T14:41:42;34.70;59.60
38788;DHT22;24536;45.488;12.238;2023-07-13T14:44:16;34.50;59.70
38788;DHT22;24536;45.488;12.238;2023-07-13T14:46:44;34.30;60.30
38788;DHT22;24536;45.488;12.238;2023-07-13T14:51:43;34.10;61.70
38788;DHT22;24536;45.488;12.238;2023-07-13T14:54:09;34.00;61.40
38788;DHT22;24536;45.488;12.238;2023-07-13T14:56:35;33.90;61.20
38788;DHT22;24536;45.488;12.238;2023-07-13T14:59:01;33.80;61.20
38788;DHT22;24536;45.488;12.238;2023-07-13T15:01:26;33.70;61.30
38788;DHT22;24536;45.488;12.238;2023-07-13T15:03:53;33.60;61.50
38788;DHT22;24536;45.488;12.238;2023-07-13T15:06:19;33.50;62.20
38788;DHT22;24536;45.488;12.238;2023-07-13T15:08:46;33.40;62.60
38788;DHT22;24536;45.488;12.238;2023-07-13T15:11:12;33.30;62.50
38788;DHT22;24536;45.488;12.238;2023-07-13T15:13:39;33.20;62.70
38788;DHT22;24536;45.488;12.238;2023-07-13T15:16:13;33.10;62.80
38788;DHT22;24536;45.488;12.238;2023-07-13T15:18:40;33.00;63.40
38788;DHT22;24536;45.488;12.238;2023-07-13T15:21:10;32.90;63.30
38788;DHT22;24536;45.488;12.238;2023-07-13T15:23:39;32.90;63.90
38788;DHT22;24536;45.488;12.238;2023-07-13T15:26:05;32.90;63.80
38788;DHT22;24536;45.488;12.238;2023-07-13T15:28:32;32.70;64.50
38788;DHT22;24536;45.488;12.238;2023-07-13T15:30:57;32.50;64.20
38788;DHT22;24536;45.488;12.238;2023-07-13T15:33:27;32.50;65.40
38788;DHT22;24536;45.488;12.238;2023-07-13T15:35:54;32.40;65.30
38788;DHT22;24536;45.488;12.238;2023-07-13T15:38:27;32.30;65.60
38788;DHT22;24536;45.488;12.238;2023-07-13T15:40:53;32.20;65.50
38788;DHT22;24536;45.488;12.238;2023-07-13T15:43:19;32.10;65.90
38788;DHT22;24536;45.488;12.238;2023-07-13T15:45:46;32.00;66.10
38788;DHT22;24536;45.488;12.238;2023-07-13T15:48:23;32.00;66.50
38788;DHT22;24536;45.488;12.238;2023-07-13T15:50:52;32.00;66.80
38788;DHT22;24536;45.488;12.238;2023-07-13T15:53:28;31.90;67.10
38788;DHT22;24536;45.488;12.238;2023-07-13T15:55:54;31.80;67.30
38788;DHT22;24536;45.488;12.238;2023-07-13T15:58:20;31.70;67.50
38788;DHT22;24536;45.488;12.238;2023-07-13T16:00:47;31.60;67.60
38788;DHT22;24536;45.488;12.238;2023-07-13T16:03:17;31.50;67.60
38788;DHT22;24536;45.488;12.238;2023-07-13T16:05:42;31.40;67.70
38788;DHT22;24536;45.488;12.238;2023-07-13T16:08:27;31.40;67.80
38788;DHT22;24536;45.488;12.238;2023-07-13T16:10:53;31.40;68.10
38788;DHT22;24536;45.488;12.238;2023-07-13T16:13:20;31.20;68.40
38788;DHT22;24536;45.488;12.238;2023-07-13T16:15:46;31.00;69.00
38788;DHT22;24536;45.488;12.238;2023-07-13T16:18:15;30.90;69.70
38788;DHT22;24536;45.488;12.238;2023-07-13T16:20:46;30.80;69.80
38788;DHT22;24536;45.488;12.238;2023-07-13T16:23:13;30.80;70.00
38788;DHT22;24536;45.488;12.238;2023-07-13T16:25:40;30.80;70.20
38788;DHT22;24536;45.488;12.238;2023-07-13T16:28:06;30.80;69.90
38788;DHT22;24536;45.488;12.238;2023-07-13T16:30:33;30.90;69.80
38788;DHT22;24536;45.488;12.238;2023-07-13T16:33:02;30.90;69.60
38788;DHT22;24536;45.488;12.238;2023-07-13T16:35:35;31.00;69.40
38788;DHT22;24536;45.488;12.238;2023-07-13T16:38:03;31.10;69.10
38788;DHT22;24536;45.488;12.238;2023-07-13T16:40:33;31.30;68.90
38788;DHT22;24536;45.488;12.238;2023-07-13T16:43:00;31.30;68.90
38788;DHT22;24536;45.488;12.238;2023-07-13T16:45:31;31.40;68.50
38788;DHT22;24536;45.488;12.238;2023-07-13T16:48:00;31.40;67.70
38788;DHT22;24536;45.488;12.238;2023-07-13T16:50:31;31.40;67.60
38788;DHT22;24536;45.488;12.238;2023-07-13T16:52:57;31.40;67.80
38788;DHT22;24536;45.488;12.238;2023-07-13T16:55:24;31.40;68.10
38788;DHT22;24536;45.488;12.238;2023-07-13T16:57:57;31.40;68.20
38788;DHT22;24536;45.488;12.238;2023-07-13T17:00:26;31.50;68.40
38788;DHT22;24536;45.488;12.238;2023-07-13T17:03:00;31.50;67.70
38788;DHT22;24536;45.488;12.238;2023-07-13T17:05:42;31.50;68.20
38788;DHT22;24536;45.488;12.238;2023-07-13T17:08:17;31.50;68.60
38788;DHT22;24536;45.488;12.238;2023-07-13T17:10:50;31.40;68.50
38788;DHT22;24536;45.488;12.238;2023-07-13T17:13:17;31.40;68.90
38788;DHT22;24536;45.488;12.238;2023-07-13T17:15:46;31.30;68.90
38788;DHT22;24536;45.488;12.238;2023-07-13T17:18:13;31.20;68.90
38788;DHT22;24536;45.488;12.238;2023-07-13T17:20:42;31.20;69.00
38788;DHT22;24536;45.488;12.238;2023-07-13T17:25:43;31.00;69.20
38788;DHT22;24536;45.488;12.238;2023-07-13T17:28:09;30.90;67.90
38788;DHT22;24536;45.488;12.238;2023-07-13T17:30:36;30.70;68.00
38788;DHT22;24536;45.488;12.238;2023-07-13T17:33:04;30.60;68.30
38788;DHT22;24536;45.488;12.238;2023-07-13T17:35:34;30.60;68.80
38788;DHT22;24536;45.488;12.238;2023-07-13T17:38:02;30.60;69.00
38788;DHT22;24536;45.488;12.238;2023-07-13T17:40:29;30.50;69.00
38788;DHT22;24536;45.488;12.238;2023-07-13T17:42:55;30.50;69.00
38788;DHT22;24536;45.488;12.238;2023-07-13T17:45:29;30.40;69.30
38788;DHT22;24536;45.488;12.238;2023-07-13T17:47:57;30.40;69.60
38788;DHT22;24536;45.488;12.238;2023-07-13T17:50:30;30.20;70.00
38788;DHT22;24536;45.488;12.238;2023-07-13T17:53:03;30.20;70.20
38788;DHT22;24536;45.488;12.238;2023-07-13T17:55:34;30.20;70.40
38788;DHT22;24536;45.488;12.238;2023-07-13T17:58:00;30.20;70.70
38788;DHT22;24536;45.488;12.238;2023-07-13T18:00:34;30.10;70.70
38788;DHT22;24536;45.488;12.238;2023-07-13T18:03:15;30.10;70.50
38788;DHT22;24536;45.488;12.238;2023-07-13T18:05:44;30.00;70.20
38788;DHT22;24536;45.488;12.238;2023-07-13T18:08:32;29.90;70.70
38788;DHT22;24536;45.488;12.238;2023-07-13T18:11:00;29.90;69.90
38788;DHT22;24536;45.488;12.238;2023-07-13T18:13:28;29.90;69.90
38788;DHT22;24536;45.488;12.238;2023-07-13T18:15:56;29.90;69.70
38788;DHT22;24536;45.488;12.238;2023-07-13T18:18:24;29.80;69.60
38788;DHT22;24536;45.488;12.238;2023-07-13T18:20:51;29.80;69.80
38788;DHT22;24536;45.488;12.238;2023-07-13T18:23:23;29.70;70.00
38788;DHT22;24536;45.488;12.238;2023-07-13T18:25:51;29.70;70.40
38788;DHT22;24536;45.488;12.238;2023-07-13T18:28:18;29.70;70.60